sensor_id;sensor_type;location;lat;lon;timestamp;P1;durP1;ratioP1;P2;durP2;ratioP2
40254;SDS011;25973;52.368;4.940;2022-08-18T00:04:43;10.23;;;4.00;;
40254;SDS011;25973;52.368;4.940;2022-08-18T00:07:12;11.55;;;4.03;;
40254;SDS011;25973;52.368;4.940;2022-08-18T00:09:40;6.23;;;3.87;;
40254;SDS011;25973;52.368;4.940;2022-08-18T00:12:41;10.32;;;3.80;;
40254;SDS011;25973;52.368;4.940;2022-08-18T00:15:01;5.97;;;3.38;;
40254;SDS011;25973;52.368;4.940;2022-08-18T00:17:30;5.78;;;3.30;;
40254;SDS011;25973;52.368;4.940;2022-08-18T00:19:56;6.55;;;3.20;;
40254;SDS011;25973;52.368;4.940;2022-08-18T00:22:22;9.07;;;4.22;;
40254;SDS011;25973;52.368;4.940;2022-08-18T00:24:49;9.38;;;4.50;;
40254;SDS011;25973;52.368;4.940;2022-08-18T00:27:21;5.53;;;3.22;;
40254;SDS011;25973;52.368;4.940;2022-08-18T00:29:48;8.25;;;3.22;;
40254;SDS011;25973;52.368;4.940;2022-08-18T00:32:34;7.07;;;4.30;;
40254;SDS011;25973;52.368;4.940;2022-08-18T00:35:10;16.45;;;7.40;;
40254;SDS011;25973;52.368;4.940;2022-08-18T00:37:38;14.35;;;6.35;;
40254;SDS011;25973;52.368;4.940;2022-08-18T00:40:08;22.02;;;6.18;;
40254;SDS011;25973;52.368;4.940;2022-08-18T00:42:41;8.98;;;4.68;;
40254;SDS011;25973;52.368;4.940;2022-08-18T00:45:12;6.78;;;4.45;;
40254;SDS011;25973;52.368;4.940;2022-08-18T00:47:41;7.95;;;4.15;;
40254;SDS011;25973;52.368;4.940;2022-08-18T00:50:07;6.60;;;4.28;;
40254;SDS011;25973;52.368;4.940;2022-08-18T00:55:59;8.43;;;4.88;;
40254;SDS011;25973;52.368;4.940;2022-08-18T00:58:38;9.48;;;4.70;;
40254;SDS011;25973;52.368;4.940;2022-08-18T01:01:07;10.45;;;3.72;;
40254;SDS011;25973;52.368;4.940;2022-08-18T01:03:35;12.38;;;4.25;;
40254;SDS011;25973;52.368;4.940;2022-08-18T01:06:46;11.23;;;4.40;;
40254;SDS011;25973;52.368;4.940;2022-08-18T01:08:56;5.57;;;3.50;;
40254;SDS011;25973;52.368;4.940;2022-08-18T01:11:22;6.97;;;3.80;;
40254;SDS011;25973;52.368;4.940;2022-08-18T01:13:48;8.63;;;3.78;;
40254;SDS011;25973;52.368;4.940;2022-08-18T01:16:13;5.32;;;3.85;;
40254;SDS011;25973;52.368;4.940;2022-08-18T01:18:58;7.45;;;3.42;;
40254;SDS011;25973;52.368;4.940;2022-08-18T01:21:44;9.63;;;3.92;;
40254;SDS011;25973;52.368;4.940;2022-08-18T01:24:16;6.20;;;3.33;;
40254;SDS011;25973;52.368;4.940;2022-08-18T01:26:45;5.97;;;3.70;;
40254;SDS011;25973;52.368;4.940;2022-08-18T01:29:14;7.80;;;4.20;;
40254;SDS011;25973;52.368;4.940;2022-08-18T01:31:43;8.02;;;3.75;;
40254;SDS011;25973;52.368;4.940;2022-08-18T01:34:14;8.82;;;3.80;;
40254;SDS011;25973;52.368;4.940;2022-08-18T01:36:40;7.28;;;3.78;;
40254;SDS011;25973;52.368;4.940;2022-08-18T01:39:07;5.78;;;3.70;;
40254;SDS011;25973;52.368;4.940;2022-08-18T01:41:36;8.70;;;3.78;;
40254;SDS011;25973;52.368;4.940;2022-08-18T01:44:02;7.50;;;3.92;;
40254;SDS011;25973;52.368;4.940;2022-08-18T01:46:30;7.28;;;4.22;;
40254;SDS011;25973;52.368;4.940;2022-08-18T01:48:57;7.80;;;4.32;;
40254;SDS011;25973;52.368;4.940;2022-08-18T01:51:25;9.00;;;5.50;;
40254;SDS011;25973;52.368;4.940;2022-08-18T01:53:52;14.30;;;5.80;;
40254;SDS011;25973;52.368;4.940;2022-08-18T01:56:17;9.20;;;5.50;;
40254;SDS011;25973;52.368;4.940;2022-08-18T01:58:43;9.15;;;4.82;;
40254;SDS011;25973;52.368;4.940;2022-08-18T02:01:11;11.40;;;4.38;;
40254;SDS011;25973;52.368;4.940;2022-08-18T02:03:39;10.05;;;5.07;;
40254;SDS011;25973;52.368;4.940;2022-08-18T02:08:36;7.53;;;4.05;;
40254;SDS011;25973;52.368;4.940;2022-08-18T02:11:02;11.35;;;5.38;;
40254;SDS011;25973;52.368;4.940;2022-08-18T02:13:29;12.02;;;5.30;;
40254;SDS011;25973;52.368;4.940;2022-08-18T02:15:55;9.73;;;5.70;;
40254;SDS011;25973;52.368;4.940;2022-08-18T02:18:24;11.13;;;5.55;;
40254;SDS011;25973;52.368;4.940;2022-08-18T02:20:54;14.23;;;5.53;;
40254;SDS011;25973;52.368;4.940;2022-08-18T02:23:20;11.07;;;4.88;;
40254;SDS011;25973;52.368;4.940;2022-08-18T02:25:46;11.35;;;4.97;;
40254;SDS011;25973;52.368;4.940;2022-08-18T02:28:12;14.02;;;4.53;;
40254;SDS011;25973;52.368;4.940;2022-08-18T02:30:38;13.30;;;4.85;;
40254;SDS011;25973;52.368;4.940;2022-08-18T02:33:08;9.35;;;4.97;;
40254;SDS011;25973;52.368;4.940;2022-08-18T02:35:35;8.80;;;4.88;;
40254;SDS011;25973;52.368;4.940;2022-08-18T02:38:02;7.70;;;4.57;;
40254;SDS011;25973;52.368;4.940;2022-08-18T02:40:29;10.15;;;5.30;;
40254;SDS011;25973;52.368;4.940;2022-08-18T02:42:57;11.80;;;4.78;;
40254;SDS011;25973;52.368;4.940;2022-08-18T02:45:23;9.55;;;4.53;;
40254;SDS011;25973;52.368;4.940;2022-08-18T02:47:53;14.95;;;5.30;;
40254;SDS011;25973;52.368;4.940;2022-08-18T02:50:20;9.50;;;5.37;;
40254;SDS011;25973;52.368;4.940;2022-08-18T02:52:46;7.95;;;4.60;;
40254;SDS011;25973;52.368;4.940;2022-08-18T02:55:12;9.02;;;4.43;;
40254;SDS011;25973;52.368;4.940;2022-08-18T02:57:42;10.57;;;4.53;;
40254;SDS011;25973;52.368;4.940;2022-08-18T03:00:10;8.55;;;4.43;;
40254;SDS011;25973;52.368;4.940;2022-08-18T03:02:47;11.10;;;4.78;;
40254;SDS011;25973;52.368;4.940;2022-08-18T03:05:15;8.55;;;4.50;;
40254;SDS011;25973;52.368;4.940;2022-08-18T03:07:41;9.05;;;4.10;;
40254;SDS011;25973;52.368;4.940;2022-08-18T03:10:07;7.32;;;4.00;;
40254;SDS011;25973;52.368;4.940;2022-08-18T03:12:33;8.43;;;3.92;;
40254;SDS011;25973;52.368;4.940;2022-08-18T03:14:59;12.32;;;4.05;;
40254;SDS011;25973;52.368;4.940;2022-08-18T03:17:26;5.78;;;3.83;;
40254;SDS011;25973;52.368;4.940;2022-08-18T03:19:52;11.48;;;4.97;;
40254;SDS011;25973;52.368;4.940;2022-08-18T03:22:18;9.90;;;3.92;;
40254;SDS011;25973;52.368;4.940;2022-08-18T03:24:44;13.82;;;5.63;;
40254;SDS011;25973;52.368;4.940;2022-08-18T03:27:09;14.27;;;4.30;;
40254;SDS011;25973;52.368;4.940;2022-08-18T03:29:36;9.50;;;3.85;;
40254;SDS011;25973;52.368;4.940;2022-08-18T03:32:02;14.57;;;4.32;;
40254;SDS011;25973;52.368;4.940;2022-08-18T03:34:30;8.95;;;4.22;;
40254;SDS011;25973;52.368;4.940;2022-08-18T03:36:56;13.20;;;3.80;;
40254;SDS011;25973;52.368;4.940;2022-08-18T03:39:21;6.50;;;4.13;;
40254;SDS011;25973;52.368;4.940;2022-08-18T03:41:47;8.63;;;4.20;;
40254;SDS011;25973;52.368;4.940;2022-08-18T03:44:18;13.93;;;4.60;;
40254;SDS011;25973;52.368;4.940;2022-08-18T03:46:45;7.40;;;4.13;;
40254;SDS011;25973;52.368;4.940;2022-08-18T03:49:11;14.15;;;5.15;;
40254;SDS011;25973;52.368;4.940;2022-08-18T03:51:37;10.23;;;4.53;;
40254;SDS011;25973;52.368;4.940;2022-08-18T03:54:07;9.15;;;4.72;;
40254;SDS011;25973;52.368;4.940;2022-08-18T03:56:34;10.98;;;4.63;;
40254;SDS011;25973;52.368;4.940;2022-08-18T03:59:23;13.25;;;4.25;;
40254;SDS011;25973;52.368;4.940;2022-08-18T04:01:50;5.80;;;3.75;;
40254;SDS011;25973;52.368;4.940;2022-08-18T04:04:19;8.57;;;4.28;;
40254;SDS011;25973;52.368;4.940;2022-08-18T04:06:48;5.70;;;4.00;;
40254;SDS011;25973;52.368;4.940;2022-08-18T04:11:43;8.50;;;4.10;;
40254;SDS011;25973;52.368;4.940;2022-08-18T04:14:11;9.38;;;4.07;;
40254;SDS011;25973;52.368;4.940;2022-08-18T04:16:42;9.35;;;3.80;;
40254;SDS011;25973;52.368;4.940;2022-08-18T04:19:08;6.07;;;3.45;;
40254;SDS011;25973;52.368;4.940;2022-08-18T04:21:37;8.27;;;3.72;;
40254;SDS011;25973;52.368;4.940;2022-08-18T04:24:04;5.55;;;3.92;;
40254;SDS011;25973;52.368;4.940;2022-08-18T04:26:32;15.63;;;3.70;;
40254;SDS011;25973;52.368;4.940;2022-08-18T04:28:59;6.63;;;4.15;;
40254;SDS011;25973;52.368;4.940;2022-08-18T04:31:25;9.18;;;4.28;;
40254;SDS011;25973;52.368;4.940;2022-08-18T04:33:53;8.32;;;4.03;;
40254;SDS011;25973;52.368;4.940;2022-08-18T04:36:20;10.48;;;4.18;;
40254;SDS011;25973;52.368;4.940;2022-08-18T04:38:46;6.03;;;4.07;;
40254;SDS011;25973;52.368;4.940;2022-08-18T04:41:12;11.63;;;4.63;;
40254;SDS011;25973;52.368;4.940;2022-08-18T04:43:38;10.90;;;4.90;;
40254;SDS011;25973;52.368;4.940;2022-08-18T04:46:05;9.40;;;4.50;;
40254;SDS011;25973;52.368;4.940;2022-08-18T04:48:32;7.22;;;4.60;;
40254;SDS011;25973;52.368;4.940;2022-08-18T04:51:18;18.35;;;5.18;;
40254;SDS011;25973;52.368;4.940;2022-08-18T04:53:45;7.72;;;4.38;;
40254;SDS011;25973;52.368;4.940;2022-08-18T04:56:28;10.15;;;5.05;;
40254;SDS011;25973;52.368;4.940;2022-08-18T04:58:58;7.82;;;4.25;;
40254;SDS011;25973;52.368;4.940;2022-08-18T05:01:27;8.98;;;4.20;;
40254;SDS011;25973;52.368;4.940;2022-08-18T05:03:57;6.38;;;4.45;;
40254;SDS011;25973;52.368;4.940;2022-08-18T05:06:24;6.45;;;3.92;;
40254;SDS011;25973;52.368;4.940;2022-08-18T05:08:51;13.15;;;4.00;;
40254;SDS011;25973;52.368;4.940;2022-08-18T05:11:19;7.55;;;3.70;;
40254;SDS011;25973;52.368;4.940;2022-08-18T05:13:46;9.70;;;3.75;;
40254;SDS011;25973;52.368;4.940;2022-08-18T05:16:12;6.22;;;3.55;;
40254;SDS011;25973;52.368;4.940;2022-08-18T05:18:38;6.68;;;4.05;;
40254;SDS011;25973;52.368;4.940;2022-08-18T05:21:05;8.57;;;3.92;;
40254;SDS011;25973;52.368;4.940;2022-08-18T05:23:38;6.22;;;3.38;;
40254;SDS011;25973;52.368;4.940;2022-08-18T05:26:05;5.63;;;3.63;;
40254;SDS011;25973;52.368;4.940;2022-08-18T05:28:31;7.63;;;3.67;;
40254;SDS011;25973;52.368;4.940;2022-08-18T05:31:08;3.33;;;2.50;;
40254;SDS011;25973;52.368;4.940;2022-08-18T05:33:39;7.47;;;2.88;;
40254;SDS011;25973;52.368;4.940;2022-08-18T05:36:05;5.50;;;2.70;;
40254;SDS011;25973;52.368;4.940;2022-08-18T05:41:32;14.80;;;2.42;;
40254;SDS011;25973;52.368;4.940;2022-08-18T05:44:01;7.07;;;2.78;;
40254;SDS011;25973;52.368;4.940;2022-08-18T05:46:31;8.00;;;2.15;;
40254;SDS011;25973;52.368;4.940;2022-08-18T05:48:59;9.55;;;2.60;;
40254;SDS011;25973;52.368;4.940;2022-08-18T05:51:30;8.90;;;2.63;;
40254;SDS011;25973;52.368;4.940;2022-08-18T05:54:03;8.93;;;2.47;;
40254;SDS011;25973;52.368;4.940;2022-08-18T05:56:53;5.90;;;2.40;;
40254;SDS011;25973;52.368;4.940;2022-08-18T05:59:22;4.80;;;2.38;;
40254;SDS011;25973;52.368;4.940;2022-08-18T06:04:25;5.53;;;2.42;;
40254;SDS011;25973;52.368;4.940;2022-08-18T06:06:58;6.50;;;2.38;;
40254;SDS011;25973;52.368;4.940;2022-08-18T06:09:31;6.85;;;2.65;;
40254;SDS011;25973;52.368;4.940;2022-08-18T06:12:26;8.85;;;4.07;;
40254;SDS011;25973;52.368;4.940;2022-08-18T06:15:16;9.65;;;3.53;;
40254;SDS011;25973;52.368;4.940;2022-08-18T06:22:52;8.70;;;3.00;;
40254;SDS011;25973;52.368;4.940;2022-08-18T06:25:29;8.85;;;3.63;;
40254;SDS011;25973;52.368;4.940;2022-08-18T06:28:02;7.97;;;3.45;;
40254;SDS011;25973;52.368;4.940;2022-08-18T06:30:44;5.60;;;3.03;;
40254;SDS011;25973;52.368;4.940;2022-08-18T06:36:55;7.40;;;3.85;;
40254;SDS011;25973;52.368;4.940;2022-08-18T06:41:36;5.68;;;2.70;;
40254;SDS011;25973;52.368;4.940;2022-08-18T06:44:10;9.30;;;2.47;;
40254;SDS011;25973;52.368;4.940;2022-08-18T06:52:19;3.80;;;2.20;;
40254;SDS011;25973;52.368;4.940;2022-08-18T06:55:00;3.55;;;2.03;;
40254;SDS011;25973;52.368;4.940;2022-08-18T06:57:35;5.70;;;2.47;;
40254;SDS011;25973;52.368;4.940;2022-08-18T07:00:08;3.75;;;2.08;;
40254;SDS011;25973;52.368;4.940;2022-08-18T07:02:54;4.93;;;1.98;;
40254;SDS011;25973;52.368;4.940;2022-08-18T07:05:27;6.03;;;1.73;;
40254;SDS011;25973;52.368;4.940;2022-08-18T07:10:41;4.40;;;1.42;;
40254;SDS011;25973;52.368;4.940;2022-08-18T07:13:11;4.70;;;1.30;;
40254;SDS011;25973;52.368;4.940;2022-08-18T07:15:50;5.47;;;1.60;;
40254;SDS011;25973;52.368;4.940;2022-08-18T07:18:27;5.30;;;2.13;;
40254;SDS011;25973;52.368;4.940;2022-08-18T07:26:03;2.28;;;1.40;;
40254;SDS011;25973;52.368;4.940;2022-08-18T07:31:09;3.60;;;1.83;;
40254;SDS011;25973;52.368;4.940;2022-08-18T07:33:39;3.00;;;2.00;;
40254;SDS011;25973;52.368;4.940;2022-08-18T07:36:07;6.65;;;1.98;;
40254;SDS011;25973;52.368;4.940;2022-08-18T07:38:38;4.97;;;1.90;;
40254;SDS011;25973;52.368;4.940;2022-08-18T07:41:15;6.72;;;2.53;;
40254;SDS011;25973;52.368;4.940;2022-08-18T07:43:52;9.43;;;2.78;;
40254;SDS011;25973;52.368;4.940;2022-08-18T07:46:44;7.95;;;2.42;;
40254;SDS011;25973;52.368;4.940;2022-08-18T07:49:22;3.85;;;2.17;;
40254;SDS011;25973;52.368;4.940;2022-08-18T07:51:58;4.05;;;2.10;;
40254;SDS011;25973;52.368;4.940;2022-08-18T08:00:07;4.03;;;1.77;;
40254;SDS011;25973;52.368;4.940;2022-08-18T08:06:03;3.63;;;1.75;;
40254;SDS011;25973;52.368;4.940;2022-08-18T08:08:34;5.15;;;2.05;;
40254;SDS011;25973;52.368;4.940;2022-08-18T08:14:05;3.15;;;1.67;;
40254;SDS011;25973;52.368;4.940;2022-08-18T08:16:54;6.13;;;2.20;;
40254;SDS011;25973;52.368;4.940;2022-08-18T08:19:39;3.83;;;2.40;;
40254;SDS011;25973;52.368;4.940;2022-08-18T08:25:04;9.93;;;5.50;;
40254;SDS011;25973;52.368;4.940;2022-08-18T08:30:27;4.32;;;2.10;;
40254;SDS011;25973;52.368;4.940;2022-08-18T08:35:40;4.45;;;1.70;;
40254;SDS011;25973;52.368;4.940;2022-08-18T08:38:18;5.18;;;3.63;;
40254;SDS011;25973;52.368;4.940;2022-08-18T08:43:18;8.68;;;2.30;;
40254;SDS011;25973;52.368;4.940;2022-08-18T08:48:33;7.35;;;1.95;;
40254;SDS011;25973;52.368;4.940;2022-08-18T08:54:00;3.63;;;1.52;;
40254;SDS011;25973;52.368;4.940;2022-08-18T08:56:33;9.82;;;1.60;;
40254;SDS011;25973;52.368;4.940;2022-08-18T08:59:04;5.93;;;1.83;;
40254;SDS011;25973;52.368;4.940;2022-08-18T09:04:39;4.00;;;2.20;;
40254;SDS011;25973;52.368;4.940;2022-08-18T09:12:47;8.30;;;1.70;;
40254;SDS011;25973;52.368;4.940;2022-08-18T09:15:23;8.65;;;5.28;;
40254;SDS011;25973;52.368;4.940;2022-08-18T09:21:12;4.28;;;1.77;;
40254;SDS011;25973;52.368;4.940;2022-08-18T09:23:46;7.45;;;2.70;;
40254;SDS011;25973;52.368;4.940;2022-08-18T09:31:39;2.30;;;1.10;;
40254;SDS011;25973;52.368;4.940;2022-08-18T09:37:19;4.28;;;1.52;;
40254;SDS011;25973;52.368;4.940;2022-08-18T09:39:54;4.18;;;1.88;;
40254;SDS011;25973;52.368;4.940;2022-08-18T09:45:56;2.22;;;1.60;;
40254;SDS011;25973;52.368;4.940;2022-08-18T09:50:53;2.20;;;1.60;;
40254;SDS011;25973;52.368;4.940;2022-08-18T09:53:33;3.15;;;1.42;;
40254;SDS011;25973;52.368;4.940;2022-08-18T09:56:13;4.32;;;1.85;;
40254;SDS011;25973;52.368;4.940;2022-08-18T09:58:51;2.60;;;1.15;;
40254;SDS011;25973;52.368;4.940;2022-08-18T10:01:20;2.80;;;1.42;;
40254;SDS011;25973;52.368;4.940;2022-08-18T10:06:40;4.55;;;1.83;;
40254;SDS011;25973;52.368;4.940;2022-08-18T10:15:03;3.53;;;1.30;;
40254;SDS011;25973;52.368;4.940;2022-08-18T10:17:56;3.10;;;1.02;;
40254;SDS011;25973;52.368;4.940;2022-08-18T10:23:02;3.93;;;1.60;;
40254;SDS011;25973;52.368;4.940;2022-08-18T10:25:33;3.15;;;1.20;;
40254;SDS011;25973;52.368;4.940;2022-08-18T10:28:10;3.25;;;1.10;;
40254;SDS011;25973;52.368;4.940;2022-08-18T10:31:04;6.70;;;1.40;;
40254;SDS011;25973;52.368;4.940;2022-08-18T10:36:45;1.55;;;1.10;;
40254;SDS011;25973;52.368;4.940;2022-08-18T10:39:13;2.92;;;1.13;;
40254;SDS011;25973;52.368;4.940;2022-08-18T10:41:48;3.33;;;1.38;;
40254;SDS011;25973;52.368;4.940;2022-08-18T10:44:26;3.75;;;1.20;;
40254;SDS011;25973;52.368;4.940;2022-08-18T10:46:56;4.13;;;1.70;;
40254;SDS011;25973;52.368;4.940;2022-08-18T10:49:24;2.03;;;0.98;;
40254;SDS011;25973;52.368;4.940;2022-08-18T10:54:53;2.28;;;0.95;;
40254;SDS011;25973;52.368;4.940;2022-08-18T11:00:53;1.30;;;0.80;;
40254;SDS011;25973;52.368;4.940;2022-08-18T11:06:04;1.15;;;0.85;;
40254;SDS011;25973;52.368;4.940;2022-08-18T11:08:37;1.73;;;0.68;;
40254;SDS011;25973;52.368;4.940;2022-08-18T11:11:09;0.88;;;0.65;;
40254;SDS011;25973;52.368;4.940;2022-08-18T11:19:09;1.05;;;0.60;;
40254;SDS011;25973;52.368;4.940;2022-08-18T11:21:40;3.90;;;1.13;;
40254;SDS011;25973;52.368;4.940;2022-08-18T11:24:18;1.13;;;0.60;;
40254;SDS011;25973;52.368;4.940;2022-08-18T11:26:50;1.77;;;0.77;;
40254;SDS011;25973;52.368;4.940;2022-08-18T11:29:29;0.68;;;0.55;;
40254;SDS011;25973;52.368;4.940;2022-08-18T11:34:44;1.88;;;0.75;;
40254;SDS011;25973;52.368;4.940;2022-08-18T11:37:32;1.58;;;0.70;;
40254;SDS011;25973;52.368;4.940;2022-08-18T11:40:04;2.22;;;0.73;;
40254;SDS011;25973;52.368;4.940;2022-08-18T11:42:35;4.75;;;0.95;;
40254;SDS011;25973;52.368;4.940;2022-08-18T11:45:13;1.35;;;0.70;;
40254;SDS011;25973;52.368;4.940;2022-08-18T11:53:35;2.42;;;1.00;;
40254;SDS011;25973;52.368;4.940;2022-08-18T12:01:51;0.82;;;0.70;;
40254;SDS011;25973;52.368;4.940;2022-08-18T12:04:30;2.03;;;1.00;;
40254;SDS011;25973;52.368;4.940;2022-08-18T12:07:06;2.88;;;0.98;;
40254;SDS011;25973;52.368;4.940;2022-08-18T12:12:32;4.00;;;1.63;;
40254;SDS011;25973;52.368;4.940;2022-08-18T12:17:38;1.80;;;1.30;;
40254;SDS011;25973;52.368;4.940;2022-08-18T12:20:05;2.42;;;0.65;;
40254;SDS011;25973;52.368;4.940;2022-08-18T12:22:36;2.38;;;1.40;;
40254;SDS011;25973;52.368;4.940;2022-08-18T12:25:04;1.60;;;0.80;;
40254;SDS011;25973;52.368;4.940;2022-08-18T12:27:31;2.15;;;0.73;;
40254;SDS011;25973;52.368;4.940;2022-08-18T12:29:57;1.83;;;0.90;;
40254;SDS011;25973;52.368;4.940;2022-08-18T12:32:25;3.75;;;1.00;;
40254;SDS011;25973;52.368;4.940;2022-08-18T12:34:53;3.78;;;1.08;;
40254;SDS011;25973;52.368;4.940;2022-08-18T12:37:19;1.10;;;0.70;;
40254;SDS011;25973;52.368;4.940;2022-08-18T12:39:47;1.38;;;1.02;;
40254;SDS011;25973;52.368;4.940;2022-08-18T12:42:13;3.47;;;0.88;;
40254;SDS011;25973;52.368;4.940;2022-08-18T12:44:39;2.47;;;0.85;;
40254;SDS011;25973;52.368;4.940;2022-08-18T12:47:09;3.35;;;0.65;;
40254;SDS011;25973;52.368;4.940;2022-08-18T12:49:36;3.25;;;0.82;;
40254;SDS011;25973;52.368;4.940;2022-08-18T12:52:02;3.53;;;0.95;;
40254;SDS011;25973;52.368;4.940;2022-08-18T12:54:28;1.58;;;0.85;;
40254;SDS011;25973;52.368;4.940;2022-08-18T12:56:56;0.98;;;0.77;;
40254;SDS011;25973;52.368;4.940;2022-08-18T12:59:22;2.60;;;0.82;;
40254;SDS011;25973;52.368;4.940;2022-08-18T13:01:48;3.85;;;1.45;;
40254;SDS011;25973;52.368;4.940;2022-08-18T13:04:14;5.50;;;0.88;;
40254;SDS011;25973;52.368;4.940;2022-08-18T13:06:49;1.95;;;0.93;;
40254;SDS011;25973;52.368;4.940;2022-08-18T13:09:19;1.88;;;0.90;;
40254;SDS011;25973;52.368;4.940;2022-08-18T13:11:45;2.20;;;1.00;;
40254;SDS011;25973;52.368;4.940;2022-08-18T13:14:10;3.40;;;1.92;;
40254;SDS011;25973;52.368;4.940;2022-08-18T13:16:38;3.65;;;1.30;;
40254;SDS011;25973;52.368;4.940;2022-08-18T13:19:05;2.13;;;1.10;;
40254;SDS011;25973;52.368;4.940;2022-08-18T13:21:32;2.97;;;1.52;;
40254;SDS011;25973;52.368;4.940;2022-08-18T13:23:58;2.05;;;0.60;;
40254;SDS011;25973;52.368;4.940;2022-08-18T13:26:25;1.95;;;0.80;;
40254;SDS011;25973;52.368;4.940;2022-08-18T13:28:52;2.85;;;0.70;;
40254;SDS011;25973;52.368;4.940;2022-08-18T13:31:18;0.68;;;0.50;;
40254;SDS011;25973;52.368;4.940;2022-08-18T13:33:44;3.95;;;0.80;;
40254;SDS011;25973;52.368;4.940;2022-08-18T13:36:09;3.03;;;0.75;;
40254;SDS011;25973;52.368;4.940;2022-08-18T13:38:35;3.03;;;0.70;;
40254;SDS011;25973;52.368;4.940;2022-08-18T13:41:01;2.03;;;0.80;;
40254;SDS011;25973;52.368;4.940;2022-08-18T13:46:12;5.07;;;1.02;;
40254;SDS011;25973;52.368;4.940;2022-08-18T13:48:41;1.83;;;0.77;;
40254;SDS011;25973;52.368;4.940;2022-08-18T13:51:07;1.70;;;0.80;;
40254;SDS011;25973;52.368;4.940;2022-08-18T13:53:35;3.55;;;1.00;;
40254;SDS011;25973;52.368;4.940;2022-08-18T13:56:03;3.10;;;1.25;;
40254;SDS011;25973;52.368;4.940;2022-08-18T13:58:29;2.22;;;1.10;;
40254;SDS011;25973;52.368;4.940;2022-08-18T14:00:59;3.28;;;1.02;;
40254;SDS011;25973;52.368;4.940;2022-08-18T14:03:26;3.47;;;1.00;;
40254;SDS011;25973;52.368;4.940;2022-08-18T14:05:52;1.83;;;0.80;;
40254;SDS011;25973;52.368;4.940;2022-08-18T14:08:22;3.60;;;0.80;;
40254;SDS011;25973;52.368;4.940;2022-08-18T14:10:49;3.30;;;0.70;;
40254;SDS011;25973;52.368;4.940;2022-08-18T14:13:18;3.17;;;0.93;;
40254;SDS011;25973;52.368;4.940;2022-08-18T14:15:45;2.95;;;1.05;;
40254;SDS011;25973;52.368;4.940;2022-08-18T14:18:11;1.48;;;0.70;;
40254;SDS011;25973;52.368;4.940;2022-08-18T14:20:37;2.22;;;0.82;;
40254;SDS011;25973;52.368;4.940;2022-08-18T14:23:21;1.13;;;0.80;;
40254;SDS011;25973;52.368;4.940;2022-08-18T14:26:05;2.65;;;0.85;;
40254;SDS011;25973;52.368;4.940;2022-08-18T14:28:49;5.03;;;1.05;;
40254;SDS011;25973;52.368;4.940;2022-08-18T14:31:15;6.05;;;1.20;;
40254;SDS011;25973;52.368;4.940;2022-08-18T14:33:41;1.90;;;0.77;;
40254;SDS011;25973;52.368;4.940;2022-08-18T14:36:09;3.38;;;1.50;;
40254;SDS011;25973;52.368;4.940;2022-08-18T14:38:35;3.08;;;1.05;;
40254;SDS011;25973;52.368;4.940;2022-08-18T14:41:01;4.15;;;1.00;;
40254;SDS011;25973;52.368;4.940;2022-08-18T14:43:29;1.25;;;0.68;;
40254;SDS011;25973;52.368;4.940;2022-08-18T14:45:55;3.03;;;0.98;;
40254;SDS011;25973;52.368;4.940;2022-08-18T14:48:21;1.25;;;0.73;;
40254;SDS011;25973;52.368;4.940;2022-08-18T14:50:48;0.95;;;0.85;;
40254;SDS011;25973;52.368;4.940;2022-08-18T14:53:17;1.52;;;0.70;;
40254;SDS011;25973;52.368;4.940;2022-08-18T14:55:44;4.32;;;0.82;;
40254;SDS011;25973;52.368;4.940;2022-08-18T14:58:10;2.65;;;1.35;;
40254;SDS011;25973;52.368;4.940;2022-08-18T15:00:35;2.40;;;0.90;;
40254;SDS011;25973;52.368;4.940;2022-08-18T15:03:01;1.58;;;0.80;;
40254;SDS011;25973;52.368;4.940;2022-08-18T15:05:30;2.15;;;1.20;;
40254;SDS011;25973;52.368;4.940;2022-08-18T15:07:57;2.60;;;0.82;;
40254;SDS011;25973;52.368;4.940;2022-08-18T15:10:23;2.42;;;0.80;;
40254;SDS011;25973;52.368;4.940;2022-08-18T15:12:49;3.13;;;0.90;;
40254;SDS011;25973;52.368;4.940;2022-08-18T15:15:15;2.72;;;1.23;;
40254;SDS011;25973;52.368;4.940;2022-08-18T15:17:42;2.60;;;1.40;;
40254;SDS011;25973;52.368;4.940;2022-08-18T15:20:09;7.03;;;1.70;;
40254;SDS011;25973;52.368;4.940;2022-08-18T15:22:38;5.38;;;1.42;;
40254;SDS011;25973;52.368;4.940;2022-08-18T15:25:24;2.45;;;1.13;;
40254;SDS011;25973;52.368;4.940;2022-08-18T15:30:32;7.10;;;1.67;;
40254;SDS011;25973;52.368;4.940;2022-08-18T15:32:57;3.75;;;1.13;;
40254;SDS011;25973;52.368;4.940;2022-08-18T15:35:26;4.75;;;1.17;;
40254;SDS011;25973;52.368;4.940;2022-08-18T15:37:52;4.72;;;1.00;;
40254;SDS011;25973;52.368;4.940;2022-08-18T15:40:19;5.13;;;1.30;;
40254;SDS011;25973;52.368;4.940;2022-08-18T15:42:51;2.38;;;1.00;;
40254;SDS011;25973;52.368;4.940;2022-08-18T15:45:31;2.92;;;0.90;;
40254;SDS011;25973;52.368;4.940;2022-08-18T15:48:01;3.90;;;0.80;;
40254;SDS011;25973;52.368;4.940;2022-08-18T15:50:28;3.42;;;0.90;;
40254;SDS011;25973;52.368;4.940;2022-08-18T15:52:54;4.97;;;1.20;;
40254;SDS011;25973;52.368;4.940;2022-08-18T15:55:22;4.15;;;0.80;;
40254;SDS011;25973;52.368;4.940;2022-08-18T15:57:49;2.30;;;0.80;;
40254;SDS011;25973;52.368;4.940;2022-08-18T16:00:16;2.00;;;0.90;;
40254;SDS011;25973;52.368;4.940;2022-08-18T16:02:49;3.28;;;1.05;;
40254;SDS011;25973;52.368;4.940;2022-08-18T16:05:17;1.63;;;0.68;;
40254;SDS011;25973;52.368;4.940;2022-08-18T16:07:45;1.75;;;0.80;;
40254;SDS011;25973;52.368;4.940;2022-08-18T16:10:13;2.53;;;1.40;;
40254;SDS011;25973;52.368;4.940;2022-08-18T16:12:40;5.32;;;1.02;;
40254;SDS011;25973;52.368;4.940;2022-08-18T16:15:05;3.10;;;1.02;;
40254;SDS011;25973;52.368;4.940;2022-08-18T16:17:32;3.80;;;1.50;;
40254;SDS011;25973;52.368;4.940;2022-08-18T16:19:58;1.85;;;0.98;;
40254;SDS011;25973;52.368;4.940;2022-08-18T16:22:25;4.07;;;0.90;;
40254;SDS011;25973;52.368;4.940;2022-08-18T16:24:51;2.08;;;1.20;;
40254;SDS011;25973;52.368;4.940;2022-08-18T16:27:17;2.75;;;1.25;;
40254;SDS011;25973;52.368;4.940;2022-08-18T16:29:43;4.30;;;1.02;;
40254;SDS011;25973;52.368;4.940;2022-08-18T16:32:08;2.17;;;0.82;;
40254;SDS011;25973;52.368;4.940;2022-08-18T16:34:34;6.32;;;1.27;;
40254;SDS011;25973;52.368;4.940;2022-08-18T16:36:59;2.75;;;1.20;;
40254;SDS011;25973;52.368;4.940;2022-08-18T16:39:25;7.75;;;1.58;;
40254;SDS011;25973;52.368;4.940;2022-08-18T16:41:51;2.85;;;1.20;;
40254;SDS011;25973;52.368;4.940;2022-08-18T16:44:16;4.18;;;1.63;;
40254;SDS011;25973;52.368;4.940;2022-08-18T16:46:43;6.43;;;1.13;;
40254;SDS011;25973;52.368;4.940;2022-08-18T16:49:09;4.38;;;1.10;;
40254;SDS011;25973;52.368;4.940;2022-08-18T16:51:34;3.42;;;1.73;;
40254;SDS011;25973;52.368;4.940;2022-08-18T16:54:01;2.25;;;1.10;;
40254;SDS011;25973;52.368;4.940;2022-08-18T16:56:30;6.93;;;3.55;;
40254;SDS011;25973;52.368;4.940;2022-08-18T16:58:59;6.60;;;2.72;;
40254;SDS011;25973;52.368;4.940;2022-08-18T17:01:43;4.65;;;2.63;;
40254;SDS011;25973;52.368;4.940;2022-08-18T17:04:28;5.32;;;2.10;;
40254;SDS011;25973;52.368;4.940;2022-08-18T17:06:57;2.72;;;1.40;;
40254;SDS011;25973;52.368;4.940;2022-08-18T17:09:23;3.20;;;1.50;;
40254;SDS011;25973;52.368;4.940;2022-08-18T17:11:50;4.85;;;2.28;;
40254;SDS011;25973;52.368;4.940;2022-08-18T17:14:16;4.20;;;1.98;;
40254;SDS011;25973;52.368;4.940;2022-08-18T17:16:41;4.65;;;1.50;;
40254;SDS011;25973;52.368;4.940;2022-08-18T17:19:08;4.68;;;2.05;;
40254;SDS011;25973;52.368;4.940;2022-08-18T17:21:34;3.30;;;1.63;;
40254;SDS011;25973;52.368;4.940;2022-08-18T17:24:00;4.63;;;1.35;;
40254;SDS011;25973;52.368;4.940;2022-08-18T17:26:51;3.75;;;1.30;;
40254;SDS011;25973;52.368;4.940;2022-08-18T17:31:57;4.28;;;1.65;;
40254;SDS011;25973;52.368;4.940;2022-08-18T17:34:32;5.47;;;1.40;;
40254;SDS011;25973;52.368;4.940;2022-08-18T17:37:00;4.47;;;1.20;;
40254;SDS011;25973;52.368;4.940;2022-08-18T17:39:31;2.03;;;1.20;;